Aurora, CO (80044)

11:22 PM MST on February 22, 2017 (GMT -0700)
The Dam East | | Change Station

Elev 5656 ft 39.66 °N, 104.84 °W | Updated 4 seconds ago

Partly Cloudy
Partly Cloudy
34.3 °F
Feels Like 34 °F
N
0.0
Wind Variable Wind from NW
Gusts 0.0 mph

Today
High -- | Low -- °F
--% Chance of Precip.
Yesterday
High -- | Low -- °F
Precip. -- in
Pressure 29.70 in
Visibility 10.0 miles
Clouds Few 11000 ft
Scattered Clouds 22000 ft
Windchill 34 °F
Dew Point 24 °F
Humidity 67%
Rainfall 0.00 in
Snow Depth Not available.
6:41 AM 5:44 PM
Waning Crescent, 12% visible
METAR KBKF 230558Z 33005KT 10SM FEW110 SCT220 M01/M05 A2975 RMK AO2A SLP058 T10091051 10112 21009 58008
Pressure 29.70 in
Visibility 10.0 miles
Clouds Few 11000 ft
Scattered Clouds 22000 ft
Windchill 34 °F
Dew Point 24 °F
Humidity 67%
Rainfall 0.00 in
Snow Depth Not available.
6:41 AM 5:44 PM
Waning Crescent, 12% visible
METAR KBKF 230558Z 33005KT 10SM FEW110 SCT220 M01/M05 A2975 RMK AO2A SLP058 T10091051 10112 21009 58008

Get Your Daily Forecast Email!

Thanks for signing up!

Be on the lookout for a verification email in your inbox.

You'll start receiving the daily forecast at 8 AM.

×

10-Day Weather Forecast

Almanac

Astronomy

Feb. 22, 2017 Rise Set
Actual Time
Civil Twilight
Nautical Twilight
Astronomical Twilight
Moon
Length of Visible Light
Length of Day
Tomorrow will be .
, % of the Moon is Illuminated

Today's Extremes

State Highs State Lows

Community

WunderPhotos

Upload Photos

1,962,540 photos uploaded!

WunderBlog® & News

Nearby

Air Quality

  Air Quality AQ Index Pollutant
Not available.

Snow Depth

Station Depth Elevation

Earthquake Activity

City Distance Mag. Time & Date
Minimum magnitude displayed is 2.5.

Coastal Water Temperatures

Place Temperature

Stations

Nearby Weather Stations

Station Location Temp. Windchill Dew Point Humidity Wind Precip. Elev Updated Type
                   

Watches & Warnings

There are currently no watches in effect.